KJDN

Jordan Airport

Jordan, Montana, USA
METAR KJDN 171348Z AUTO 06005KT M04/M07 A2986 RMK AO1 SLP143 T10391067
Observed Flight Rules
Dec-17 @ 13:48 UTC (60 minutes ago)
Wind
60° at 5 knots
Temperatures Readings
Current -4°C / 25°F
Dewpoint -7°C / 19°F
Humidity 80%
Altimeter 29.86" Hg
Pressure 1014.3 hPa
Elevation 801
METAR KJDN 171348Z AUTO 06005KT M04/M07 A2986 RMK AO1 SLP143 T10391067
Observed Flight Rules
Dec-17 @ 13:48 UTC
(60 minutes ago)
Wind
60° at 5 knots
Temperature Dewpoint
-4°C / 25°F -7°C / 19°F
Humidity Altimeter Pressure
80% 29.86" Hg 1014.3 hPa